Time;durP1;ratioP1;P1;durP2;ratioP2;P2;SDS_P1;SDS_P2;PMS_P1;PMS_P2;Temp;Humidity;BMP_temperature;BMP_pressure;BME280_temperature;BME280_humidity;BME280_pressure;Samples;Min_cycle;Max_cycle;Signal;HPM_P1;HPM_P2
2023/06/02 00:01:15;;;;;;;1.63;0.88;;;29.60;99.90;;;;;;5040871;28;20197;-53
2023/06/02 00:03:42;;;;;;;5.78;5.18;;;29.60;99.90;;;;;;5034991;28;20021;-56
2023/06/02 00:06:14;;;;;;;3.78;2.35;;;29.60;99.90;;;;;;5039533;28;20029;-57
2023/06/02 00:08:41;;;;;;;6.68;2.03;;;29.60;99.90;;;;;;5041133;28;20021;-60
2023/06/02 00:11:11;;;;;;;3.10;1.40;;;29.60;99.90;;;;;;5044270;28;20065;-58
2023/06/02 00:13:38;;;;;;;4.72;1.70;;;29.50;99.90;;;;;;5041250;28;20021;-56
2023/06/02 00:16:06;;;;;;;2.20;1.30;;;29.70;99.90;;;;;;5044716;28;20021;-55
2023/06/02 00:18:33;;;;;;;3.50;1.90;;;29.70;99.90;;;;;;5044269;28;20263;-58
2023/06/02 00:21:06;;;;;;;6.35;1.83;;;29.80;99.90;;;;;;5040161;28;20083;-56
2023/06/02 00:23:34;;;;;;;3.25;1.50;;;29.80;99.90;;;;;;5048987;28;20325;-54
2023/06/02 00:26:01;;;;;;;5.85;1.35;;;29.70;99.90;;;;;;5043504;28;20627;-55
2023/06/02 00:28:28;;;;;;;3.55;1.20;;;29.70;99.90;;;;;;5035637;28;20045;-56
2023/06/02 00:30:55;;;;;;;3.92;1.25;;;29.70;99.90;;;;;;5044058;28;20080;-58
2023/06/02 00:56:36;;;;;;;3.03;1.58;;;29.70;99.90;;;;;;5660205;23;20059;-58
2023/06/02 00:59:03;;;;;;;4.40;1.40;;;29.70;99.90;;;;;;4965395;29;20042;-59
2023/06/02 01:01:30;;;;;;;4.47;1.50;;;29.70;99.90;;;;;;4965720;29;20238;-58
2023/06/02 01:03:57;;;;;;;3.47;1.25;;;29.70;99.90;;;;;;4958728;28;20050;-55
2023/06/02 01:06:36;;;;;;;5.43;1.13;;;29.70;99.90;;;;;;4956958;29;20039;-55
2023/06/02 01:09:10;;;;;;;3.33;1.40;;;29.60;99.90;;;;;;4965441;29;20027;-55
2023/06/02 01:11:37;;;;;;;5.07;1.50;;;29.70;99.90;;;;;;4965605;29;20063;-53
2023/06/02 01:14:04;;;;;;;2.15;1.08;;;29.60;99.90;;;;;;4965514;29;20038;-56
2023/06/02 01:16:32;;;;;;;5.53;1.25;;;29.70;99.90;;;;;;4965724;29;20218;-54
2023/06/02 01:19:00;;;;;;;3.92;0.98;;;29.70;99.90;;;;;;4965262;29;20019;-54
2023/06/02 01:21:37;;;;;;;5.30;0.90;;;29.70;99.90;;;;;;4965294;29;20066;-54
2023/06/02 01:24:04;;;;;;;3.63;0.82;;;29.70;99.90;;;;;;4965319;29;20323;-50
2023/06/02 01:26:35;;;;;;;4.80;0.82;;;29.70;99.90;;;;;;4965547;29;20038;-53
2023/06/02 01:29:05;;;;;;;3.25;0.90;;;29.70;99.90;;;;;;4965385;29;20030;-52
2023/06/02 01:31:47;;;;;;;4.32;0.70;;;29.60;99.90;;;;;;4965577;29;20219;-56
2023/06/02 01:34:24;;;;;;;3.00;0.90;;;29.70;99.90;;;;;;4965530;29;20033;-53
2023/06/02 01:36:57;;;;;;;4.07;1.60;;;29.70;99.90;;;;;;4961977;28;20099;-55
2023/06/02 01:39:27;;;;;;;4.82;1.67;;;29.60;99.90;;;;;;4962442;29;20027;-56
2023/06/02 01:41:55;;;;;;;3.47;1.60;;;29.60;99.90;;;;;;4947060;29;20160;-55
2023/06/02 01:44:23;;;;;;;4.63;1.80;;;29.60;99.90;;;;;;4945938;29;20063;-56
2023/06/02 01:46:49;;;;;;;5.43;1.67;;;29.60;99.90;;;;;;4946326;29;20094;-53
2023/06/02 01:49:17;;;;;;;2.55;1.38;;;29.70;99.90;;;;;;4945888;29;20075;-58
2023/06/02 01:51:44;;;;;;;3.80;1.30;;;29.70;99.90;;;;;;4945992;29;20039;-56
2023/06/02 01:54:11;;;;;;;2.15;1.10;;;29.70;99.90;;;;;;4946135;29;20015;-56
2023/06/02 01:56:39;;;;;;;2.05;1.20;;;29.60;99.90;;;;;;4957080;29;20047;-57
2023/06/02 01:59:05;;;;;;;2.63;0.90;;;29.70;99.90;;;;;;4968614;29;20027;-55
2023/06/02 02:01:33;;;;;;;2.33;1.10;;;29.70;99.90;;;;;;4972091;28;20206;-55
2023/06/02 02:04:01;;;;;;;4.22;0.98;;;29.70;99.90;;;;;;4988395;28;20037;-56
2023/06/02 02:06:30;;;;;;;3.67;0.80;;;29.60;99.90;;;;;;4987734;28;20039;-57
2023/06/02 02:08:58;;;;;;;3.92;0.80;;;29.70;99.90;;;;;;4984057;28;20029;-56
2023/06/02 02:11:26;;;;;;;3.58;0.82;;;29.70;99.90;;;;;;4968729;29;20065;-57
2023/06/02 02:13:54;;;;;;;1.95;0.80;;;29.70;99.90;;;;;;4968220;29;20031;-58
2023/06/02 02:16:21;;;;;;;2.47;0.60;;;29.70;99.90;;;;;;4968514;29;20290;-54
2023/06/02 02:18:52;;;;;;;1.92;0.70;;;29.70;99.90;;;;;;4968308;29;20071;-54
2023/06/02 02:21:20;;;;;;;4.05;0.63;;;29.60;99.90;;;;;;4951816;29;20042;-55
2023/06/02 02:23:47;;;;;;;1.30;0.50;;;29.60;99.90;;;;;;4968173;29;20089;-55
2023/06/02 02:26:14;;;;;;;3.05;0.43;;;29.60;99.90;;;;;;4971675;28;20034;-57
2023/06/02 02:28:41;;;;;;;2.60;0.60;;;29.60;99.90;;;;;;4987383;28;20062;-54
2023/06/02 02:31:07;;;;;;;0.88;0.40;;;29.60;99.90;;;;;;4981430;28;20034;-54
2023/06/02 02:33:34;;;;;;;2.97;0.50;;;29.60;99.90;;;;;;4973191;28;20341;-55
2023/06/02 02:36:00;;;;;;;1.27;0.40;;;29.60;99.90;;;;;;4968080;29;20041;-57
2023/06/02 02:38:27;;;;;;;4.55;0.60;;;29.50;99.90;;;;;;4970162;28;20020;-57
2023/06/02 02:40:53;;;;;;;1.05;0.40;;;29.50;99.90;;;;;;4976542;28;20211;-58
2023/06/02 02:43:21;;;;;;;3.10;0.52;;;29.50;99.90;;;;;;4967755;29;20035;-60
2023/06/02 02:45:48;;;;;;;5.00;0.82;;;29.50;99.90;;;;;;4967796;29;20027;-57
2023/06/02 02:48:14;;;;;;;2.20;0.55;;;29.40;99.90;;;;;;4967780;29;20053;-55
2023/06/02 02:50:41;;;;;;;2.15;0.50;;;29.30;99.90;;;;;;4967390;29;20218;-58
2023/06/02 02:53:09;;;;;;;4.00;0.63;;;29.40;99.90;;;;;;4967695;29;20209;-56
2023/06/02 02:55:37;;;;;;;3.65;0.73;;;29.30;99.90;;;;;;4967620;29;20023;-56
2023/06/02 02:58:04;;;;;;;3.50;0.80;;;29.40;99.90;;;;;;4967195;29;20062;-57
2023/06/02 03:00:32;;;;;;;2.70;0.85;;;29.40;99.90;;;;;;4967562;29;20139;-54
2023/06/02 03:03:01;;;;;;;3.28;0.70;;;29.40;99.90;;;;;;4967469;29;20030;-57
2023/06/02 03:05:28;;;;;;;3.40;0.80;;;29.50;99.90;;;;;;4967287;28;20302;-54
2023/06/02 03:07:54;;;;;;;2.25;0.75;;;29.50;99.90;;;;;;4967413;29;20033;-56
2023/06/02 03:10:22;;;;;;;2.72;0.70;;;29.50;99.90;;;;;;4971537;28;20053;-56
2023/06/02 03:12:49;;;;;;;1.58;0.68;;;29.50;99.90;;;;;;4984416;28;20030;-56
2023/06/02 03:15:15;;;;;;;4.32;0.80;;;29.50;99.90;;;;;;4986586;28;20026;-55
2023/06/02 03:17:45;;;;;;;7.78;0.93;;;29.40;99.90;;;;;;4986617;28;20085;-56
2023/06/02 03:20:11;;;;;;;5.43;0.82;;;29.40;99.90;;;;;;4986195;28;20050;-55
2023/06/02 03:22:38;;;;;;;2.60;0.85;;;29.40;99.90;;;;;;4986386;28;20086;-55
2023/06/02 03:25:05;;;;;;;5.55;0.95;;;29.30;99.90;;;;;;4978680;28;20248;-58
2023/06/02 03:27:32;;;;;;;4.28;0.80;;;29.40;99.90;;;;;;4972650;28;20058;-55
2023/06/02 03:29:58;;;;;;;2.92;0.73;;;29.30;99.90;;;;;;4968756;28;20027;-57
2023/06/02 03:32:25;;;;;;;4.63;0.80;;;29.40;99.90;;;;;;4984852;28;20138;-57
2023/06/02 03:34:51;;;;;;;4.03;0.80;;;29.40;99.90;;;;;;4975365;28;20050;-58
2023/06/02 03:37:19;;;;;;;3.10;0.70;;;29.30;99.90;;;;;;4986089;28;20309;-57
2023/06/02 03:39:46;;;;;;;3.28;0.70;;;29.40;99.90;;;;;;4986142;28;20302;-61
2023/06/02 03:42:12;;;;;;;2.05;0.60;;;29.30;99.90;;;;;;4986449;28;20042;-58
2023/06/02 03:44:39;;;;;;;2.72;0.63;;;29.30;99.90;;;;;;4979380;28;20019;-59
2023/06/02 03:47:06;;;;;;;4.82;0.70;;;29.30;99.90;;;;;;4969344;28;20098;-55
2023/06/02 03:49:32;;;;;;;4.93;0.70;;;29.30;99.90;;;;;;4966406;29;20258;-55
2023/06/02 03:51:59;;;;;;;4.00;0.50;;;29.30;99.90;;;;;;4974320;28;20172;-55
2023/06/02 03:54:25;;;;;;;8.15;0.73;;;29.30;99.90;;;;;;4985450;28;20015;-56
2023/06/02 03:56:52;;;;;;;3.08;0.60;;;29.30;99.90;;;;;;4985363;28;20389;-62
2023/06/02 03:59:20;;;;;;;2.60;0.55;;;29.30;99.90;;;;;;4985434;28;20094;-61
2023/06/02 04:01:46;;;;;;;2.42;0.70;;;29.30;99.90;;;;;;4985746;28;20206;-56
2023/06/02 04:04:13;;;;;;;1.55;0.43;;;29.30;99.90;;;;;;4985537;28;20093;-56
2023/06/02 04:06:42;;;;;;;2.38;0.63;;;29.30;99.90;;;;;;4985958;28;20054;-55
2023/06/02 04:09:13;;;;;;;5.88;0.63;;;29.30;99.90;;;;;;4985702;28;20384;-54
2023/06/02 04:11:40;;;;;;;4.40;0.47;;;29.30;99.90;;;;;;4985617;28;20203;-58
2023/06/02 04:14:07;;;;;;;1.88;0.65;;;29.20;99.90;;;;;;4985494;28;20089;-55
2023/06/02 04:16:34;;;;;;;3.60;0.45;;;29.30;99.90;;;;;;4985577;28;20194;-55
2023/06/02 04:19:01;;;;;;;2.20;0.50;;;29.30;99.90;;;;;;4984925;28;20093;-54
2023/06/02 04:21:29;;;;;;;3.42;0.50;;;29.30;99.90;;;;;;4985149;28;20037;-57
2023/06/02 04:23:56;;;;;;;2.03;0.47;;;29.20;99.90;;;;;;4970256;28;20035;-57
2023/06/02 04:26:22;;;;;;;6.15;0.60;;;29.30;99.90;;;;;;4981456;28;20277;-55
2023/06/02 04:28:49;;;;;;;5.78;0.70;;;29.20;99.90;;;;;;4984910;28;20077;-57
2023/06/02 04:31:26;;;;;;;3.22;0.50;;;29.30;99.90;;;;;;4985512;28;20043;-53
2023/06/02 04:33:55;;;;;;;2.53;0.63;;;29.30;99.90;;;;;;4985077;28;20041;-54
2023/06/02 04:36:22;;;;;;;4.10;0.60;;;29.20;99.90;;;;;;4979437;28;20042;-56
2023/06/02 04:38:48;;;;;;;2.85;0.60;;;29.20;99.90;;;;;;4974413;28;20311;-55
2023/06/02 04:41:15;;;;;;;3.20;0.60;;;29.20;99.90;;;;;;4965916;29;20079;-55
2023/06/02 04:43:42;;;;;;;2.92;0.77;;;29.10;99.90;;;;;;4965495;29;20107;-54
2023/06/02 04:46:10;;;;;;;4.03;0.60;;;29.20;99.90;;;;;;4966019;29;20325;-54
2023/06/02 04:48:40;;;;;;;3.22;0.82;;;29.20;99.90;;;;;;4965627;29;20038;-54
2023/06/02 04:51:07;;;;;;;4.00;0.60;;;29.20;99.90;;;;;;4965920;29;20027;-56
2023/06/02 04:53:33;;;;;;;1.27;0.40;;;29.20;99.90;;;;;;4965718;29;20035;-58
2023/06/02 04:56:00;;;;;;;3.25;0.50;;;29.20;99.90;;;;;;4965519;29;20023;-54
2023/06/02 04:58:26;;;;;;;1.92;0.50;;;29.20;99.90;;;;;;4973949;28;20198;-54
2023/06/02 05:00:53;;;;;;;2.00;0.50;;;29.20;99.90;;;;;;4967240;28;20043;-54
2023/06/02 05:03:19;;;;;;;3.47;0.68;;;29.20;99.90;;;;;;4965433;29;20023;-56
2023/06/02 05:05:46;;;;;;;2.55;0.52;;;29.20;99.90;;;;;;4965580;29;20031;-55
2023/06/02 05:08:12;;;;;;;5.35;0.60;;;29.10;99.90;;;;;;4965733;29;20087;-55
2023/06/02 05:10:39;;;;;;;6.38;0.77;;;29.20;99.90;;;;;;4965517;29;20051;-54
2023/06/02 05:13:06;;;;;;;4.13;0.70;;;29.10;99.90;;;;;;4965259;29;20063;-54
2023/06/02 05:15:32;;;;;;;3.65;0.52;;;29.10;99.90;;;;;;4965436;29;20098;-57
2023/06/02 05:17:59;;;;;;;4.50;0.70;;;29.10;99.90;;;;;;4969185;28;20213;-54
2023/06/02 05:20:25;;;;;;;3.72;0.50;;;29.10;99.90;;;;;;4965448;28;20103;-55
2023/06/02 05:22:52;;;;;;;3.47;0.57;;;29.10;99.90;;;;;;4973524;28;20314;-54
2023/06/02 05:25:18;;;;;;;1.75;0.50;;;29.10;99.90;;;;;;4984451;28;20310;-57
2023/06/02 05:27:45;;;;;;;2.55;0.35;;;29.10;99.90;;;;;;4984842;28;20026;-57
2023/06/02 05:30:11;;;;;;;2.05;0.40;;;29.10;99.90;;;;;;4988192;28;20042;-54
2023/06/02 05:32:38;;;;;;;4.63;0.60;;;29.10;99.90;;;;;;4988515;28;20086;-55
2023/06/02 05:35:05;;;;;;;2.80;0.40;;;29.10;99.90;;;;;;4988659;28;20034;-55
2023/06/02 05:37:31;;;;;;;7.15;0.50;;;29.00;99.90;;;;;;4988545;28;20027;-55
2023/06/02 05:39:58;;;;;;;2.13;0.40;;;29.00;99.90;;;;;;4988555;28;20022;-54
2023/06/02 05:42:25;;;;;;;3.72;0.60;;;29.10;99.90;;;;;;4988812;28;20035;-58
2023/06/02 05:44:52;;;;;;;3.50;0.50;;;29.00;99.90;;;;;;4988545;28;20050;-53
2023/06/02 05:47:19;;;;;;;2.13;0.40;;;29.00;99.90;;;;;;4988715;28;20092;-54
2023/06/02 05:49:45;;;;;;;4.30;0.50;;;29.00;99.90;;;;;;4988020;28;20054;-53
2023/06/02 05:52:12;;;;;;;5.45;0.65;;;29.00;99.90;;;;;;4981658;28;20039;-53
2023/06/02 05:54:38;;;;;;;1.60;0.30;;;29.00;99.90;;;;;;4982452;28;20042;-57
2023/06/02 05:57:05;;;;;;;2.58;0.50;;;29.00;99.80;;;;;;4987901;28;20035;-56
2023/06/02 05:59:32;;;;;;;1.40;0.40;;;29.00;99.80;;;;;;4988111;28;20031;-54
2023/06/02 06:01:58;;;;;;;3.08;0.50;;;29.00;99.80;;;;;;4988443;28;20031;-57
2023/06/02 06:04:25;;;;;;;2.00;0.60;;;29.00;99.80;;;;;;4987870;28;20035;-54
2023/06/02 06:06:51;;;;;;;5.05;0.60;;;29.00;99.90;;;;;;4977757;28;20039;-54
2023/06/02 06:09:18;;;;;;;1.10;0.40;;;29.00;99.80;;;;;;4968512;29;20039;-57
2023/06/02 06:11:45;;;;;;;2.92;0.63;;;28.90;99.90;;;;;;4973689;28;20031;-59
2023/06/02 06:14:11;;;;;;;4.07;0.70;;;28.90;99.80;;;;;;4978385;28;20027;-59
2023/06/02 06:16:38;;;;;;;5.13;0.40;;;28.90;99.80;;;;;;4968840;29;20023;-57
2023/06/02 06:19:04;;;;;;;2.92;0.50;;;28.90;99.70;;;;;;4972543;28;20021;-60
2023/06/02 06:21:31;;;;;;;2.35;0.60;;;28.90;99.70;;;;;;4986976;28;20098;-55
2023/06/02 06:23:57;;;;;;;2.58;0.40;;;28.90;99.80;;;;;;4987576;28;20267;-54
2023/06/02 06:26:24;;;;;;;4.05;0.30;;;28.80;99.80;;;;;;4979563;28;20035;-54
2023/06/02 06:28:51;;;;;;;3.85;0.43;;;28.90;99.90;;;;;;4968222;29;20094;-54
2023/06/02 06:31:17;;;;;;;2.70;0.40;;;28.90;99.80;;;;;;4968504;29;20045;-54
2023/06/02 06:33:44;;;;;;;2.65;0.43;;;28.90;99.80;;;;;;4968022;29;20035;-56
2023/06/02 06:36:11;;;;;;;4.63;0.47;;;28.90;99.90;;;;;;4968305;29;20082;-55
2023/06/02 06:38:38;;;;;;;4.88;0.50;;;28.90;99.80;;;;;;4967981;29;20082;-54
2023/06/02 06:41:05;;;;;;;1.85;0.20;;;28.90;99.70;;;;;;4967527;28;20246;-55
2023/06/02 06:43:31;;;;;;;4.53;0.50;;;28.90;99.70;;;;;;4967920;29;20338;-54
2023/06/02 06:45:59;;;;;;;3.17;0.40;;;28.80;99.70;;;;;;4968285;29;20145;-62
2023/06/02 06:48:25;;;;;;;4.93;0.60;;;28.80;99.70;;;;;;4969162;28;20043;-56
2023/06/02 06:50:52;;;;;;;5.13;0.40;;;28.80;99.70;;;;;;4974297;28;20063;-56
2023/06/02 06:53:19;;;;;;;2.78;0.45;;;28.80;99.70;;;;;;4978629;28;20218;-53
2023/06/02 06:55:46;;;;;;;1.13;0.40;;;28.80;99.70;;;;;;4975467;28;20213;-53
2023/06/02 06:58:13;;;;;;;1.75;0.30;;;28.80;99.70;;;;;;4978787;28;20105;-57
2023/06/02 07:00:40;;;;;;;2.40;0.40;;;28.80;99.60;;;;;;4967731;29;20051;-58
2023/06/02 07:03:07;;;;;;;5.25;0.40;;;28.80;99.70;;;;;;4967604;29;20026;-57
2023/06/02 07:05:33;;;;;;;6.05;0.50;;;28.80;99.60;;;;;;4967424;29;20103;-57
2023/06/02 07:08:00;;;;;;;1.75;0.40;;;28.80;99.60;;;;;;4967439;29;20086;-60
2023/06/02 07:10:26;;;;;;;1.55;0.30;;;28.80;99.60;;;;;;4968464;28;20038;-61
2023/06/02 07:12:53;;;;;;;4.75;0.35;;;28.80;99.60;;;;;;4986551;28;20031;-59
2023/06/02 07:15:19;;;;;;;3.33;0.40;;;28.80;99.60;;;;;;4986710;28;20066;-58
2023/06/02 07:17:46;;;;;;;4.30;0.45;;;28.80;99.60;;;;;;4986533;28;20307;-57
2023/06/02 07:20:13;;;;;;;2.25;0.50;;;28.80;99.60;;;;;;4986386;28;20086;-62
2023/06/02 07:22:40;;;;;;;6.15;0.40;;;28.80;99.60;;;;;;4986585;28;20098;-57
2023/06/02 07:25:08;;;;;;;8.18;0.50;;;28.80;99.60;;;;;;4986467;28;20199;-61
2023/06/02 07:27:34;;;;;;;3.80;0.60;;;28.80;99.60;;;;;;4986589;28;20034;-56
2023/06/02 07:30:02;;;;;;;4.28;0.52;;;28.80;99.60;;;;;;4986439;28;20082;-59
2023/06/02 07:32:29;;;;;;;6.80;0.68;;;28.70;99.50;;;;;;4986222;28;20039;-56
2023/06/02 07:34:55;;;;;;;4.45;0.60;;;28.80;99.60;;;;;;4986261;28;20214;-58
2023/06/02 07:37:22;;;;;;;4.32;0.43;;;28.70;99.50;;;;;;4986275;28;20046;-65
2023/06/02 07:39:48;;;;;;;2.60;0.45;;;28.70;99.50;;;;;;4986322;28;20018;-61
2023/06/02 07:42:15;;;;;;;3.70;0.63;;;28.70;99.60;;;;;;4986545;28;20085;-56
2023/06/02 07:44:41;;;;;;;3.92;0.47;;;28.60;99.50;;;;;;4986215;28;20019;-61
2023/06/02 07:47:10;;;;;;;3.80;0.57;;;28.70;99.60;;;;;;4986427;28;20109;-61
2023/06/02 07:49:37;;;;;;;7.53;1.00;;;28.70;99.60;;;;;;4985831;28;20065;-56
2023/06/02 07:52:04;;;;;;;3.13;0.47;;;28.70;99.60;;;;;;4985484;28;20026;-61
2023/06/02 07:54:30;;;;;;;6.43;0.60;;;28.70;99.50;;;;;;4986043;28;20051;-61
2023/06/02 07:56:57;;;;;;;4.55;0.50;;;28.70;99.60;;;;;;4985732;28;20070;-61
2023/06/02 07:59:23;;;;;;;3.80;0.60;;;28.70;99.60;;;;;;4986153;28;20019;-61
2023/06/02 08:01:51;;;;;;;11.05;0.50;;;28.70;99.60;;;;;;4986040;28;20030;-59
2023/06/02 08:04:17;;;;;;;9.50;1.17;;;28.60;99.50;;;;;;4985599;28;20042;-53
2023/06/02 08:06:44;;;;;;;3.53;0.43;;;28.60;99.60;;;;;;4968643;28;20311;-59
2023/06/02 08:09:12;;;;;;;6.43;0.70;;;28.60;99.70;;;;;;4985609;28;20282;-58
2023/06/02 08:11:38;;;;;;;2.60;0.40;;;28.60;99.60;;;;;;4985843;28;20107;-54
2023/06/02 08:14:05;;;;;;;4.38;0.55;;;28.60;99.70;;;;;;4985627;28;20019;-58
2023/06/02 08:16:31;;;;;;;5.10;0.63;;;28.60;99.60;;;;;;4986029;28;20055;-58
2023/06/02 08:18:58;;;;;;;6.28;0.57;;;28.60;99.60;;;;;;4985435;28;20026;-54
2023/06/02 08:21:24;;;;;;;3.17;0.40;;;28.60;99.60;;;;;;4985761;28;20026;-53
2023/06/02 08:23:51;;;;;;;3.15;0.52;;;28.60;99.60;;;;;;4985354;28;20029;-56
2023/06/02 08:26:17;;;;;;;4.03;0.43;;;28.70;99.60;;;;;;4985490;28;20035;-57
2023/06/02 08:28:49;;;;;;;7.28;0.70;;;28.60;99.50;;;;;;4985230;28;20327;-54
2023/06/02 08:31:20;;;;;;;5.72;0.52;;;28.70;99.60;;;;;;4985232;28;20038;-59
2023/06/02 08:33:47;;;;;;;6.40;0.77;;;28.60;99.60;;;;;;4985061;28;20031;-58
2023/06/02 08:36:17;;;;;;;5.78;0.80;;;28.60;99.50;;;;;;4985269;28;20053;-58
2023/06/02 08:38:44;;;;;;;5.60;0.40;;;28.60;99.50;;;;;;4985065;28;20023;-53
2023/06/02 08:41:14;;;;;;;3.25;0.50;;;28.60;99.50;;;;;;4985101;28;20038;-58
2023/06/02 08:43:41;;;;;;;7.30;0.80;;;28.60;99.50;;;;;;4984928;28;20023;-58
2023/06/02 08:46:15;;;;;;;6.63;0.73;;;28.60;99.50;;;;;;4985331;28;20238;-58
2023/06/02 08:48:46;;;;;;;4.65;0.40;;;28.50;99.60;;;;;;4984776;28;20085;-53
2023/06/02 08:51:21;;;;;;;3.22;0.50;;;28.60;99.60;;;;;;4984964;28;20026;-57
2023/06/02 08:53:48;;;;;;;4.25;0.40;;;28.50;99.60;;;;;;4984698;28;20050;-53
2023/06/02 08:56:16;;;;;;;6.05;0.60;;;28.50;99.70;;;;;;4984723;28;20226;-57
2023/06/02 08:58:46;;;;;;;4.13;0.50;;;28.40;99.70;;;;;;4984864;28;20031;-56
2023/06/02 09:01:13;;;;;;;6.85;0.60;;;28.50;99.80;;;;;;4984926;28;20031;-56
2023/06/02 09:03:40;;;;;;;8.02;0.90;;;28.50;99.70;;;;;;4984525;28;20222;-57
2023/06/02 09:06:28;;;;;;;2.83;0.57;;;28.50;99.70;;;;;;4985047;28;20274;-57
2023/06/02 09:08:56;;;;;;;6.10;0.70;;;28.50;99.70;;;;;;4984778;28;20030;-58
2023/06/02 09:11:22;;;;;;;5.53;0.60;;;28.50;99.60;;;;;;4985007;28;20230;-53
2023/06/02 09:13:49;;;;;;;5.15;0.57;;;28.50;99.60;;;;;;4985117;28;20019;-58
2023/06/02 09:16:16;;;;;;;4.47;0.57;;;28.50;99.50;;;;;;4984965;28;20023;-57
2023/06/02 09:18:59;;;;;;;7.53;0.65;;;28.50;99.60;;;;;;4984717;28;20077;-58
2023/06/02 09:21:33;;;;;;;5.65;0.50;;;28.50;99.60;;;;;;4984654;28;20353;-57
2023/06/02 09:24:02;;;;;;;4.85;0.63;;;28.50;99.50;;;;;;4984627;28;20293;-56
2023/06/02 09:26:30;;;;;;;3.38;0.50;;;28.50;99.50;;;;;;4984910;28;20031;-60
2023/06/02 09:29:04;;;;;;;5.43;0.50;;;28.50;99.60;;;;;;4984633;28;20058;-59
2023/06/02 09:31:46;;;;;;;5.38;0.85;;;28.40;99.50;;;;;;4984918;28;20047;-58
2023/06/02 09:34:13;;;;;;;;;;;28.40;99.50;;;;;;4985000;28;20353;-58
2023/06/02 09:36:39;;;;;;;4.13;0.63;;;28.40;99.50;;;;;;4984920;28;20075;-55
2023/06/02 09:39:10;;;;;;;4.85;0.47;;;28.40;99.60;;;;;;4984493;28;20349;-55
2023/06/02 09:41:40;;;;;;;3.47;0.40;;;28.40;99.60;;;;;;4984840;28;20203;-54
2023/06/02 09:44:14;;;;;;;3.78;0.60;;;28.40;99.50;;;;;;4984769;28;20037;-53
2023/06/02 09:46:44;;;;;;;4.75;0.60;;;28.40;99.50;;;;;;4984892;28;20050;-54
2023/06/02 09:49:11;;;;;;;4.40;0.50;;;28.40;99.50;;;;;;4984511;28;20031;-57
2023/06/02 09:51:39;;;;;;;2.75;0.40;;;28.40;99.50;;;;;;4984648;28;20034;-53
2023/06/02 09:54:08;;;;;;;3.53;0.50;;;28.40;99.40;;;;;;4984491;28;20330;-54
2023/06/02 09:56:38;;;;;;;7.72;0.60;;;28.40;99.40;;;;;;4984287;28;20063;-53
2023/06/02 09:59:09;;;;;;;7.03;0.85;;;28.40;99.40;;;;;;4984213;28;20019;-56
2023/06/02 10:01:36;;;;;;;3.65;0.40;;;28.40;99.40;;;;;;4984588;28;20031;-59
2023/06/02 10:04:06;;;;;;;3.58;0.70;;;28.40;99.40;;;;;;4984280;28;20023;-53
2023/06/02 10:06:45;;;;;;;3.33;0.50;;;28.40;99.40;;;;;;4984197;28;20031;-55
2023/06/02 10:09:30;;;;;;;3.55;0.60;;;28.40;99.30;;;;;;4984247;28;20075;-53
2023/06/02 10:12:07;;;;;;;4.90;0.80;;;28.30;99.30;;;;;;4984579;28;20031;-55
2023/06/02 10:14:53;;;;;;;3.80;0.60;;;28.30;99.30;;;;;;4984401;28;20077;-55
2023/06/02 10:17:47;;;;;;;3.92;0.52;;;28.30;99.30;;;;;;4988081;28;20022;-57
2023/06/02 10:20:26;;;;;;;7.88;1.40;;;28.30;99.30;;;;;;4987489;28;20218;-56
2023/06/02 10:23:27;;;;;;;8.75;0.80;;;28.30;99.40;;;;;;4987553;28;20379;-57
2023/06/02 10:26:22;;;;;;;7.10;0.88;;;28.30;99.40;;;;;;4987678;28;20034;-52
2023/06/02 10:28:49;;;;;;;17.30;1.38;;;28.30;99.40;;;;;;4987475;28;20089;-53
2023/06/02 10:31:17;;;;;;;5.03;1.17;;;28.30;99.40;;;;;;4987445;28;20043;-57
2023/06/02 10:33:45;;;;;;;7.15;1.17;;;28.30;99.40;;;;;;4987193;28;20206;-53
2023/06/02 10:36:17;;;;;;;6.63;1.23;;;28.30;99.40;;;;;;4987705;28;20222;-55
2023/06/02 10:38:45;;;;;;;10.60;1.70;;;28.30;99.40;;;;;;4987279;28;20330;-55
2023/06/02 10:41:14;;;;;;;6.95;2.20;;;28.30;99.40;;;;;;4987289;28;20023;-56
2023/06/02 10:44:21;;;;;;;4.88;1.40;;;28.30;99.30;;;;;;4987480;28;20034;-62
2023/06/02 10:46:47;;;;;;;9.95;1.98;;;28.30;99.30;;;;;;4987523;28;20019;-53
2023/06/02 10:50:02;;;;;;;9.57;1.85;;;28.30;99.30;;;;;;4987089;28;20046;-57
2023/06/02 10:52:31;;;;;;;10.73;1.42;;;28.30;99.30;;;;;;4983352;28;20146;-55
2023/06/02 10:55:14;;;;;;;10.95;1.63;;;28.30;99.30;;;;;;4986859;28;20030;-58
2023/06/02 10:58:04;;;;;;;11.20;1.65;;;28.20;99.20;;;;;;4986795;28;20093;-54
2023/06/02 11:00:35;;;;;;;8.80;1.77;;;28.20;99.30;;;;;;4986945;28;20262;-59
2023/06/02 11:03:28;;;;;;;9.35;1.70;;;28.20;99.30;;;;;;4986845;28;20030;-58
2023/06/02 11:06:30;;;;;;;8.35;1.77;;;28.20;99.30;;;;;;4977133;28;20047;-55
2023/06/02 11:09:45;;;;;;;9.20;1.95;;;28.20;99.30;;;;;;4889942;29;20031;-54
2023/06/02 11:12:12;;;;;;;21.65;3.13;;;28.30;99.40;;;;;;4973949;28;20050;-57
2023/06/02 11:15:01;;;;;;;11.25;2.50;;;28.20;99.30;;;;;;4986746;28;20015;-57
2023/06/02 11:17:35;;;;;;;10.18;3.15;;;28.20;99.40;;;;;;4986830;28;20041;-60
2023/06/02 11:20:06;;;;;;;12.57;3.28;;;28.30;99.40;;;;;;4986407;28;20023;-55
2023/06/02 11:22:36;;;;;;;8.55;3.10;;;28.30;99.40;;;;;;4986603;28;20105;-57
2023/06/02 11:25:03;;;;;;;9.23;3.60;;;28.30;99.40;;;;;;4986311;28;20066;-58
2023/06/02 11:27:40;;;;;;;10.55;4.80;;;28.30;99.40;;;;;;4986429;28;20258;-61
2023/06/02 11:30:15;;;;;;;11.73;4.55;;;28.30;99.40;;;;;;4986468;28;20019;-60
2023/06/02 11:32:48;;;;;;;12.90;5.25;;;28.30;99.50;;;;;;4986012;28;20041;-57
2023/06/02 11:35:16;;;;;;;17.48;7.68;;;28.30;99.50;;;;;;4986320;28;20018;-59
2023/06/02 11:37:43;;;;;;;13.40;8.82;;;28.30;99.60;;;;;;4986130;28;20027;-56
2023/06/02 11:40:12;;;;;;;16.05;5.88;;;28.30;99.60;;;;;;4985975;28;20030;-59
2023/06/02 11:42:48;;;;;;;12.65;4.68;;;28.30;99.60;;;;;;4986348;28;20019;-59
2023/06/02 11:45:27;;;;;;;10.88;4.00;;;28.30;99.70;;;;;;4985969;28;20066;-59
2023/06/02 11:48:11;;;;;;;12.75;4.53;;;28.40;99.70;;;;;;4986014;28;20026;-58
2023/06/02 11:50:38;;;;;;;20.17;4.97;;;28.40;99.70;;;;;;4985839;28;20222;-59
2023/06/02 11:53:14;;;;;;;10.35;4.10;;;28.40;99.80;;;;;;4985872;28;20030;-59
2023/06/02 11:55:41;;;;;;;11.63;3.97;;;28.40;99.90;;;;;;4986075;28;20034;-55
2023/06/02 11:58:41;;;;;;;15.35;4.25;;;28.50;99.80;;;;;;4985640;28;20106;-57
2023/06/02 12:01:17;;;;;;;11.25;4.22;;;28.50;99.90;;;;;;4968165;28;20070;-55
2023/06/02 12:04:00;;;;;;;14.07;3.95;;;28.50;99.90;;;;;;4985668;28;20015;-54
2023/06/02 12:06:27;;;;;;;7.65;3.67;;;28.50;99.90;;;;;;4985799;28;20311;-56
2023/06/02 12:08:55;;;;;;;10.77;3.58;;;28.50;99.90;;;;;;4985603;28;20022;-55
2023/06/02 12:11:23;;;;;;;9.50;3.08;;;28.50;99.90;;;;;;4985956;28;20238;-57
2023/06/02 12:13:56;;;;;;;11.48;4.90;;;28.50;99.90;;;;;;4985451;28;20030;-54
2023/06/02 12:16:26;;;;;;;10.88;4.68;;;28.60;99.90;;;;;;4985978;28;20310;-58
2023/06/02 12:19:16;;;;;;;8.18;4.78;;;28.50;99.90;;;;;;4985525;28;20026;-59
2023/06/02 12:21:45;;;;;;;10.50;4.30;;;28.50;99.90;;;;;;4973298;28;20106;-58
2023/06/02 12:24:28;;;;;;;8.90;3.42;;;28.60;99.90;;;;;;4985284;28;20068;-61
2023/06/02 12:26:56;;;;;;;9.05;3.03;;;28.70;99.90;;;;;;4985711;28;20054;-60
2023/06/02 12:29:23;;;;;;;4.00;2.80;;;28.70;99.90;;;;;;4985261;28;20030;-57
2023/06/02 12:32:00;;;;;;;7.97;3.05;;;28.70;99.90;;;;;;4985536;28;20049;-61
2023/06/02 12:34:30;;;;;;;8.80;3.50;;;28.70;99.90;;;;;;4985455;28;20026;-60
2023/06/02 12:36:59;;;;;;;12.75;3.13;;;28.70;99.90;;;;;;4984946;28;20027;-60
2023/06/02 12:39:25;;;;;;;8.75;2.90;;;28.70;99.90;;;;;;4967871;28;20046;-61
2023/06/02 12:41:52;;;;;;;8.77;2.55;;;28.70;99.90;;;;;;4985438;28;20390;-60
2023/06/02 12:44:19;;;;;;;6.85;3.15;;;28.80;99.90;;;;;;4985061;28;20093;-55
2023/06/02 12:46:47;;;;;;;6.30;2.60;;;28.80;99.90;;;;;;4985520;28;20049;-56
2023/06/02 12:49:14;;;;;;;8.10;2.90;;;28.80;99.90;;;;;;4985043;28;20214;-58
2023/06/02 12:51:40;;;;;;;7.15;2.45;;;28.80;99.90;;;;;;4985192;28;20376;-52
2023/06/02 12:54:07;;;;;;;5.78;2.60;;;28.80;99.90;;;;;;4984965;28;20315;-60
2023/06/02 12:56:33;;;;;;;8.23;2.58;;;28.90;99.90;;;;;;4984821;28;20038;-55
2023/06/02 12:59:00;;;;;;;6.15;2.25;;;28.90;99.90;;;;;;4984781;28;20086;-58
2023/06/02 13:01:26;;;;;;;7.70;2.30;;;28.90;99.90;;;;;;4985200;28;20031;-59
2023/06/02 13:03:55;;;;;;;7.70;2.28;;;28.90;99.90;;;;;;4985305;28;20031;-55
2023/06/02 13:06:22;;;;;;;7.47;2.70;;;28.90;99.90;;;;;;4984929;28;20203;-60
2023/06/02 13:08:49;;;;;;;10.70;2.63;;;29.00;99.90;;;;;;4984912;28;20341;-55
2023/06/02 13:11:17;;;;;;;4.32;2.00;;;29.00;99.90;;;;;;4984901;28;20027;-58
2023/06/02 13:13:45;;;;;;;12.27;2.10;;;29.00;99.90;;;;;;4984628;28;20027;-55
2023/06/02 13:16:12;;;;;;;9.15;2.00;;;29.10;99.90;;;;;;4984957;28;20038;-56
2023/06/02 13:18:41;;;;;;;9.32;2.05;;;29.10;99.90;;;;;;4984796;28;20130;-54
2023/06/02 13:21:08;;;;;;;8.40;3.58;;;29.10;99.90;;;;;;4984573;28;20097;-58